createdAt,value
2022-09-25T00:00:16.630Z,63.06
2022-09-25T00:01:11.261Z,64.38
2022-09-25T00:01:50.365Z,64.38
2022-09-25T00:02:23.609Z,63.64
2022-09-25T00:02:56.971Z,62.89
2022-09-25T00:03:31.155Z,62.10
2022-09-25T00:04:04.445Z,61.37
2022-09-25T00:04:37.851Z,60.57
2022-09-25T00:05:10.983Z,59.97
2022-09-25T00:05:46.196Z,59.25
2022-09-25T00:06:24.555Z,58.41
2022-09-25T00:06:57.714Z,57.97
2022-09-25T00:07:31.002Z,58.12
2022-09-25T00:08:05.514Z,58.42
2022-09-25T00:08:38.757Z,58.95
2022-09-25T00:09:14.955Z,59.52
2022-09-25T00:09:48.149Z,60.06
2022-09-25T00:10:21.385Z,60.88
2022-09-25T00:10:54.711Z,61.49
2022-09-25T00:11:31.900Z,62.14
2022-09-25T00:12:05.219Z,62.64
2022-09-25T00:12:38.726Z,63.45
2022-09-25T00:13:12.123Z,63.66
2022-09-25T00:13:46.638Z,63.49
2022-09-25T00:14:19.717Z,62.90
2022-09-25T00:14:53.799Z,61.97
2022-09-25T00:15:27.182Z,61.58
2022-09-25T00:16:00.698Z,60.92
2022-09-25T00:16:33.865Z,60.24
2022-09-25T00:17:07.111Z,59.63
2022-09-25T00:17:40.535Z,58.87
2022-09-25T00:18:13.712Z,58.15
2022-09-25T00:19:05.911Z,57.80
2022-09-25T00:19:51.063Z,57.67
2022-09-25T00:20:24.337Z,58.46
2022-09-25T00:21:05.233Z,59.23
2022-09-25T00:21:38.629Z,58.91
2022-09-25T00:22:12.102Z,59.02
2022-09-25T00:22:45.250Z,60.94
2022-09-25T00:23:18.312Z,61.72
2022-09-25T00:23:51.598Z,62.31
2022-09-25T00:24:24.718Z,62.92
2022-09-25T00:24:58.290Z,63.62
2022-09-25T00:25:31.388Z,63.92
2022-09-25T00:26:08.484Z,63.63
2022-09-25T00:26:43.319Z,63.31
2022-09-25T00:27:18.511Z,62.77
2022-09-25T00:27:53.615Z,62.18
2022-09-25T00:28:29.874Z,61.31
2022-09-25T00:29:04.313Z,60.72
2022-09-25T00:29:40.410Z,60.26
2022-09-25T00:30:14.677Z,59.99
2022-09-25T00:30:47.796Z,59.54
2022-09-25T00:31:25.759Z,59.06
2022-09-25T00:31:58.933Z,58.48
2022-09-25T00:32:32.068Z,58.32
2022-09-25T00:33:05.225Z,58.38
2022-09-25T00:33:38.316Z,58.65
2022-09-25T00:34:11.976Z,59.16
2022-09-25T00:34:45.278Z,59.66
2022-09-25T00:35:18.532Z,60.30
2022-09-25T00:35:51.613Z,60.92
2022-09-25T00:36:25.429Z,61.55
2022-09-25T00:36:58.681Z,62.13
2022-09-25T00:37:35.171Z,62.69
2022-09-25T00:38:08.347Z,63.32
2022-09-25T00:38:41.524Z,63.53
2022-09-25T00:39:14.680Z,63.28
2022-09-25T00:39:48.028Z,62.78
2022-09-25T00:40:21.225Z,62.07
2022-09-25T00:40:55.968Z,61.19
2022-09-25T00:41:34.149Z,60.48
2022-09-25T00:42:07.645Z,59.92
2022-09-25T00:42:41.357Z,58.80
2022-09-25T00:43:35.278Z,58.03
2022-09-25T00:44:47.369Z,57.50
2022-09-25T00:45:21.496Z,57.55
2022-09-25T00:45:54.861Z,58.91
2022-09-25T00:46:27.978Z,59.62
2022-09-25T00:47:01.334Z,60.18
2022-09-25T00:47:37.365Z,60.93
2022-09-25T00:48:15.928Z,61.50
2022-09-25T00:49:01.128Z,62.07
2022-09-25T00:49:34.191Z,62.61
2022-09-25T00:50:19.563Z,63.63
2022-09-25T00:50:57.015Z,64.24
2022-09-25T00:51:55.519Z,63.50
2022-09-25T00:52:30.182Z,63.75
2022-09-25T00:53:15.181Z,61.64
2022-09-25T00:53:50.266Z,60.84
2022-09-25T00:54:28.521Z,59.84
2022-09-25T00:55:07.792Z,59.16
2022-09-25T00:55:44.637Z,58.24
2022-09-25T00:56:18.203Z,58.08
2022-09-25T00:56:52.975Z,58.37
2022-09-25T00:57:30.895Z,58.91
2022-09-25T00:58:06.006Z,59.40
2022-09-25T00:58:41.316Z,60.11
2022-09-25T00:59:21.273Z,60.77
2022-09-25T01:00:01.116Z,61.22
2022-09-25T01:00:35.214Z,61.81
2022-09-25T01:01:09.823Z,62.71
2022-09-25T01:01:43.122Z,63.38
2022-09-25T01:02:39.906Z,63.70
2022-09-25T01:03:13.786Z,64.15
2022-09-25T01:03:47.436Z,62.80
2022-09-25T01:04:22.981Z,62.22
2022-09-25T01:05:00.534Z,61.59
2022-09-25T01:05:37.986Z,61.01
2022-09-25T01:06:13.046Z,60.19
2022-09-25T01:06:46.261Z,59.13
2022-09-25T01:07:20.550Z,58.13
2022-09-25T01:07:57.428Z,57.80
2022-09-25T01:08:32.821Z,57.81
2022-09-25T01:09:06.584Z,58.26
2022-09-25T01:09:40.613Z,58.85
2022-09-25T01:10:14.878Z,59.41
2022-09-25T01:10:48.278Z,59.99
2022-09-25T01:11:21.466Z,60.68
2022-09-25T01:11:54.995Z,61.29
2022-09-25T01:12:28.321Z,61.92
2022-09-25T01:13:01.726Z,62.52
2022-09-25T01:13:35.598Z,63.26
2022-09-25T01:14:10.595Z,63.79
2022-09-25T01:14:44.266Z,63.79
2022-09-25T01:15:20.786Z,63.15
2022-09-25T01:15:53.975Z,62.39
2022-09-25T01:16:54.724Z,61.18
2022-09-25T01:17:35.777Z,61.67
2022-09-25T01:18:22.044Z,59.94
2022-09-25T01:19:11.442Z,58.93
2022-09-25T01:20:10.820Z,57.84
2022-09-25T01:20:46.651Z,57.53
2022-09-25T01:21:44.992Z,58.48
2022-09-25T01:22:41.201Z,58.51
2022-09-25T01:23:37.932Z,59.44
2022-09-25T01:24:20.265Z,60.37
2022-09-25T01:25:35.087Z,61.64
2022-09-25T01:26:37.135Z,62.10
2022-09-25T01:27:32.435Z,63.08
2022-09-25T01:28:13.390Z,63.14
2022-09-25T01:29:02.897Z,63.64
2022-09-25T01:29:48.763Z,63.67
2022-09-25T01:30:22.251Z,63.88
2022-09-25T01:31:03.217Z,63.82
2022-09-25T01:31:55.162Z,63.48
2022-09-25T01:32:57.817Z,63.13
2022-09-25T01:33:55.570Z,63.44
2022-09-25T01:34:40.433Z,62.60
2022-09-25T01:35:47.906Z,62.40
2022-09-25T01:36:30.061Z,62.19
2022-09-25T01:37:19.248Z,62.19
2022-09-25T01:37:52.357Z,61.54
2022-09-25T01:38:41.886Z,60.18
2022-09-25T01:39:30.019Z,60.32
2022-09-25T01:40:08.111Z,59.32
2022-09-25T01:40:47.406Z,58.15
2022-09-25T01:41:58.082Z,58.09
2022-09-25T01:42:39.995Z,58.17
2022-09-25T01:43:18.450Z,59.35
2022-09-25T01:44:28.422Z,60.12
2022-09-25T01:45:09.759Z,60.29
2022-09-25T01:45:50.714Z,61.97
2022-09-25T01:46:29.242Z,62.93
2022-09-25T01:47:15.284Z,63.82
2022-09-25T01:47:50.856Z,64.44
2022-09-25T01:48:28.134Z,63.54
2022-09-25T01:49:08.921Z,62.81
2022-09-25T01:49:49.742Z,62.05
2022-09-25T01:50:33.429Z,62.23
2022-09-25T01:51:28.802Z,62.75
2022-09-25T01:52:07.514Z,60.64
2022-09-25T01:52:49.460Z,58.64
2022-09-25T01:53:28.741Z,57.29
2022-09-25T01:54:12.558Z,57.04
2022-09-25T01:54:52.256Z,57.25
2022-09-25T01:55:40.998Z,57.80
2022-09-25T01:56:33.200Z,58.30
2022-09-25T01:57:19.699Z,59.18
2022-09-25T01:58:08.277Z,60.03
2022-09-25T01:58:47.950Z,60.90
2022-09-25T01:59:44.375Z,61.99
2022-09-25T02:00:23.716Z,62.37
2022-09-25T02:01:05.945Z,63.62
2022-09-25T02:01:42.784Z,63.93
2022-09-25T02:02:24.194Z,63.91
2022-09-25T02:03:07.747Z,63.94
2022-09-25T02:03:47.658Z,64.11
2022-09-25T02:04:26.582Z,63.09
2022-09-25T02:05:07.896Z,62.01
2022-09-25T02:05:47.005Z,61.22
2022-09-25T02:06:21.704Z,60.14
2022-09-25T02:06:59.233Z,59.07
2022-09-25T02:07:39.843Z,58.17
2022-09-25T02:08:24.593Z,57.67
2022-09-25T02:09:20.043Z,57.92
2022-09-25T02:10:01.535Z,58.19
2022-09-25T02:10:38.243Z,59.26
2022-09-25T02:11:12.835Z,60.09
2022-09-25T02:11:51.488Z,60.97
2022-09-25T02:12:31.470Z,61.54
2022-09-25T02:13:15.913Z,62.26
2022-09-25T02:13:58.325Z,63.00
2022-09-25T02:14:46.845Z,64.09
2022-09-25T02:15:19.820Z,64.71
2022-09-25T02:16:12.332Z,63.23
2022-09-25T02:16:49.395Z,63.26
2022-09-25T02:17:48.528Z,61.60
2022-09-25T02:18:41.144Z,61.60
2022-09-25T02:19:35.957Z,60.46
2022-09-25T02:20:28.290Z,58.91
2022-09-25T02:21:13.847Z,57.45
2022-09-25T02:21:50.944Z,57.41
2022-09-25T02:22:35.461Z,58.13
2022-09-25T02:23:19.012Z,58.47
2022-09-25T02:24:21.291Z,59.35
2022-09-25T02:25:13.094Z,59.64
2022-09-25T02:26:06.335Z,60.71
2022-09-25T02:26:39.573Z,61.48
2022-09-25T02:27:13.095Z,62.96
2022-09-25T02:27:46.764Z,63.90
2022-09-25T02:28:19.872Z,64.17
2022-09-25T02:28:54.402Z,63.71
2022-09-25T02:29:27.975Z,63.08
2022-09-25T02:30:01.734Z,62.40
2022-09-25T02:30:35.785Z,61.59
2022-09-25T02:31:12.786Z,60.73
2022-09-25T02:31:49.345Z,60.01
2022-09-25T02:32:28.987Z,59.20
2022-09-25T02:33:02.409Z,58.17
2022-09-25T02:33:36.066Z,57.56
2022-09-25T02:34:14.794Z,57.56
2022-09-25T02:34:48.630Z,57.90
2022-09-25T02:35:21.847Z,58.66
2022-09-25T02:35:55.064Z,59.57
2022-09-25T02:36:28.121Z,59.97
2022-09-25T02:37:01.468Z,60.71
2022-09-25T02:37:34.879Z,61.32
2022-09-25T02:38:08.896Z,61.92
2022-09-25T02:38:42.316Z,62.36
2022-09-25T02:39:21.668Z,62.82
2022-09-25T02:40:00.899Z,63.32
2022-09-25T02:40:45.451Z,63.53
2022-09-25T02:41:30.497Z,63.57
2022-09-25T02:42:26.606Z,63.26
2022-09-25T02:43:03.680Z,62.57
2022-09-25T02:44:02.444Z,61.30
2022-09-25T02:45:06.575Z,61.71
2022-09-25T02:45:49.587Z,61.42
2022-09-25T02:47:01.228Z,59.45
2022-09-25T02:47:56.250Z,57.88
2022-09-25T02:48:36.854Z,57.50
2022-09-25T02:49:27.119Z,58.09
2022-09-25T02:50:09.135Z,58.58
2022-09-25T02:50:52.749Z,59.63
2022-09-25T02:51:51.240Z,60.31
2022-09-25T02:52:45.631Z,60.40
2022-09-25T02:53:41.053Z,61.12
2022-09-25T02:54:22.815Z,61.71
2022-09-25T02:55:32.186Z,62.96
2022-09-25T02:56:13.819Z,64.75
2022-09-25T02:57:05.011Z,64.28
2022-09-25T02:57:44.408Z,64.24
2022-09-25T02:58:20.791Z,63.22
2022-09-25T02:59:02.815Z,61.89
2022-09-25T02:59:42.440Z,61.36
2022-09-25T03:00:15.966Z,60.41
2022-09-25T03:00:52.714Z,59.32
2022-09-25T03:01:29.322Z,58.54
2022-09-25T03:02:04.080Z,58.26
2022-09-25T03:02:39.610Z,58.26
2022-09-25T03:03:17.113Z,58.53
2022-09-25T03:03:54.056Z,58.98
2022-09-25T03:04:29.794Z,59.35
2022-09-25T03:05:05.983Z,60.00
2022-09-25T03:05:40.203Z,60.76
2022-09-25T03:06:13.615Z,61.26
2022-09-25T03:06:47.717Z,61.87
2022-09-25T03:07:21.559Z,62.44
2022-09-25T03:08:13.709Z,62.98
2022-09-25T03:08:53.158Z,63.92
2022-09-25T03:09:27.762Z,63.87
2022-09-25T03:10:00.987Z,63.05
2022-09-25T03:10:37.466Z,62.46
2022-09-25T03:11:17.171Z,61.85
2022-09-25T03:11:50.305Z,61.33
2022-09-25T03:12:23.370Z,60.10
2022-09-25T03:12:56.449Z,59.27
2022-09-25T03:13:34.417Z,58.47
2022-09-25T03:14:07.556Z,58.00
2022-09-25T03:14:41.342Z,57.92
2022-09-25T03:15:14.497Z,58.02
2022-09-25T03:15:53.450Z,58.48
2022-09-25T03:16:40.786Z,58.89
2022-09-25T03:17:18.002Z,59.33
2022-09-25T03:17:52.715Z,60.32
2022-09-25T03:18:26.889Z,60.99
2022-09-25T03:19:00.825Z,61.59
2022-09-25T03:19:35.215Z,62.16
2022-09-25T03:20:10.192Z,62.76
2022-09-25T03:20:43.638Z,63.43
2022-09-25T03:21:17.053Z,63.78
2022-09-25T03:21:51.379Z,63.80
2022-09-25T03:22:24.597Z,63.53
2022-09-25T03:22:57.831Z,62.92
2022-09-25T03:23:32.671Z,62.02
2022-09-25T03:24:06.617Z,61.43
2022-09-25T03:24:39.745Z,60.69
2022-09-25T03:25:13.524Z,59.90
2022-09-25T03:25:50.354Z,59.27
2022-09-25T03:26:27.944Z,58.15
2022-09-25T03:27:01.013Z,57.62
2022-09-25T03:27:34.194Z,57.71
2022-09-25T03:28:12.057Z,57.94
2022-09-25T03:28:47.610Z,58.38
2022-09-25T03:29:22.144Z,59.02
2022-09-25T03:29:55.585Z,59.60
2022-09-25T03:30:29.607Z,60.30
2022-09-25T03:31:12.303Z,60.75
2022-09-25T03:31:45.790Z,61.15
2022-09-25T03:32:19.070Z,62.15
2022-09-25T03:32:52.032Z,62.47
2022-09-25T03:33:26.219Z,63.21
2022-09-25T03:33:59.468Z,63.66
2022-09-25T03:34:32.408Z,63.59
2022-09-25T03:35:06.049Z,63.06
2022-09-25T03:35:40.302Z,62.30
2022-09-25T03:36:22.028Z,61.59
2022-09-25T03:36:55.241Z,61.09
2022-09-25T03:37:28.232Z,59.89
2022-09-25T03:38:01.385Z,59.24
2022-09-25T03:38:34.669Z,58.39
2022-09-25T03:39:10.981Z,58.00
2022-09-25T03:39:44.085Z,57.93
2022-09-25T03:40:17.334Z,58.22
2022-09-25T03:40:50.704Z,58.60
2022-09-25T03:41:24.091Z,59.24
2022-09-25T03:41:57.382Z,59.83
2022-09-25T03:42:31.835Z,60.42
2022-09-25T03:43:39.377Z,61.60
2022-09-25T03:44:12.979Z,62.23
2022-09-25T03:44:46.381Z,62.65
2022-09-25T03:45:20.176Z,63.33
2022-09-25T03:45:53.517Z,63.62
2022-09-25T03:46:29.679Z,63.38
2022-09-25T03:47:02.977Z,62.88
2022-09-25T03:47:36.141Z,62.01
2022-09-25T03:48:09.222Z,61.20
2022-09-25T03:48:42.971Z,60.42
2022-09-25T03:49:16.225Z,59.68
2022-09-25T03:49:49.283Z,58.65
2022-09-25T03:50:22.559Z,57.75
2022-09-25T03:50:56.518Z,57.30
2022-09-25T03:51:31.400Z,57.29
2022-09-25T03:52:04.506Z,57.52
2022-09-25T03:52:37.654Z,57.98
2022-09-25T03:53:10.953Z,58.55
2022-09-25T03:53:44.076Z,59.19
2022-09-25T03:54:17.399Z,59.66
2022-09-25T03:54:50.428Z,60.38
2022-09-25T03:55:23.525Z,61.16
2022-09-25T03:55:56.770Z,61.62
2022-09-25T03:56:30.529Z,61.83
2022-09-25T03:57:03.671Z,62.29
2022-09-25T03:57:36.866Z,63.04
2022-09-25T03:58:10.691Z,63.61
2022-09-25T03:58:44.195Z,63.96
2022-09-25T03:59:17.204Z,63.86
2022-09-25T03:59:50.423Z,63.66
2022-09-25T04:00:24.330Z,63.50
2022-09-25T04:00:57.629Z,63.00
2022-09-25T04:01:31.012Z,62.34
2022-09-25T04:02:04.158Z,61.88
2022-09-25T04:02:37.451Z,61.67
2022-09-25T04:03:10.717Z,61.51
2022-09-25T04:03:47.590Z,61.75
2022-09-25T04:04:20.844Z,61.61
2022-09-25T04:04:55.383Z,60.76
2022-09-25T04:05:28.474Z,60.31
2022-09-25T04:06:04.997Z,60.00
2022-09-25T04:06:38.095Z,59.87
2022-09-25T04:07:11.728Z,59.75
2022-09-25T04:07:44.843Z,59.48
2022-09-25T04:08:17.989Z,58.67
2022-09-25T04:08:51.587Z,58.25
2022-09-25T04:09:24.768Z,58.20
2022-09-25T04:09:57.970Z,58.53
2022-09-25T04:10:32.276Z,59.01
2022-09-25T04:11:06.136Z,59.46
2022-09-25T04:11:39.262Z,59.97
2022-09-25T04:12:12.665Z,60.63
2022-09-25T04:12:45.737Z,61.22
2022-09-25T04:13:19.902Z,61.84
2022-09-25T04:13:53.147Z,62.36
2022-09-25T04:14:26.279Z,62.70
2022-09-25T04:14:59.390Z,63.23
2022-09-25T04:15:33.944Z,63.54
2022-09-25T04:16:08.484Z,63.60
2022-09-25T04:16:42.278Z,63.37
2022-09-25T04:17:15.459Z,63.05
2022-09-25T04:17:48.713Z,62.74
2022-09-25T04:18:22.120Z,62.59
2022-09-25T04:18:55.387Z,62.64
2022-09-25T04:19:28.646Z,62.23
2022-09-25T04:20:02.548Z,61.52
2022-09-25T04:20:36.158Z,60.79
2022-09-25T04:21:12.847Z,60.00
2022-09-25T04:21:46.045Z,59.27
2022-09-25T04:22:19.142Z,58.08
2022-09-25T04:22:52.264Z,57.51
2022-09-25T04:23:25.485Z,57.59
2022-09-25T04:24:17.528Z,57.64
2022-09-25T04:24:50.648Z,57.59
2022-09-25T04:25:25.854Z,58.76
2022-09-25T04:25:59.276Z,59.40
2022-09-25T04:26:32.792Z,60.18
2022-09-25T04:27:06.273Z,60.87
2022-09-25T04:27:39.475Z,61.57
2022-09-25T04:28:12.968Z,62.10
2022-09-25T04:28:46.466Z,62.74
2022-09-25T04:29:21.389Z,63.60
2022-09-25T04:29:55.322Z,63.99
2022-09-25T04:30:30.175Z,63.83
2022-09-25T04:31:04.101Z,63.17
2022-09-25T04:31:37.426Z,62.11
2022-09-25T04:32:29.349Z,61.20
2022-09-25T04:33:21.062Z,61.42
2022-09-25T04:33:54.360Z,59.71
2022-09-25T04:34:27.396Z,57.72
2022-09-25T04:35:00.682Z,57.29
2022-09-25T04:35:34.324Z,57.43
2022-09-25T04:36:07.872Z,57.87
2022-09-25T04:36:41.699Z,58.28
2022-09-25T04:37:15.826Z,58.90
2022-09-25T04:37:49.352Z,59.59
2022-09-25T04:38:22.727Z,60.24
2022-09-25T04:38:55.936Z,60.93
2022-09-25T04:39:29.024Z,61.63
2022-09-25T04:40:02.436Z,62.17
2022-09-25T04:40:36.342Z,62.62
2022-09-25T04:41:09.582Z,63.30
2022-09-25T04:41:43.675Z,63.84
2022-09-25T04:42:16.784Z,63.86
2022-09-25T04:42:55.178Z,63.41
2022-09-25T04:43:29.849Z,62.86
2022-09-25T04:44:05.637Z,61.64
2022-09-25T04:44:38.831Z,60.83
2022-09-25T04:45:12.228Z,59.85
2022-09-25T04:45:47.536Z,58.95
2022-09-25T04:46:22.585Z,57.96
2022-09-25T04:46:56.022Z,57.26
2022-09-25T04:47:30.319Z,57.25
2022-09-25T04:48:04.947Z,57.59
2022-09-25T04:48:38.181Z,57.86
2022-09-25T04:49:11.265Z,58.56
2022-09-25T04:49:44.439Z,59.30
2022-09-25T04:50:17.506Z,60.01
2022-09-25T04:50:52.099Z,60.64
2022-09-25T04:51:25.340Z,61.17
2022-09-25T04:51:59.252Z,61.92
2022-09-25T04:52:32.407Z,62.42
2022-09-25T04:53:05.510Z,63.10
2022-09-25T04:53:39.420Z,63.92
2022-09-25T04:54:14.501Z,64.05
2022-09-25T04:54:48.081Z,63.62
2022-09-25T04:55:24.575Z,62.72
2022-09-25T04:56:12.263Z,61.82
2022-09-25T04:56:48.102Z,61.40
2022-09-25T04:57:53.376Z,59.64
2022-09-25T04:58:16.553Z,59.12
2022-09-25T04:58:50.534Z,58.05
2022-09-25T04:59:23.780Z,57.98
2022-09-25T04:59:57.862Z,58.29
2022-09-25T05:00:32.721Z,58.67
2022-09-25T05:01:09.245Z,59.21
2022-09-25T05:01:43.785Z,59.67
2022-09-25T05:02:17.517Z,60.24
2022-09-25T05:02:50.938Z,60.93
2022-09-25T05:03:24.390Z,61.64
2022-09-25T05:03:57.705Z,62.20
2022-09-25T05:04:31.255Z,62.65
2022-09-25T05:05:04.653Z,63.22
2022-09-25T05:05:38.305Z,63.64
2022-09-25T05:06:11.624Z,63.71
2022-09-25T05:06:44.874Z,63.32
2022-09-25T05:07:18.124Z,62.61
2022-09-25T05:07:56.141Z,61.66
2022-09-25T05:08:29.387Z,61.03
2022-09-25T05:09:03.497Z,59.87
2022-09-25T05:09:37.403Z,59.07
2022-09-25T05:10:10.671Z,58.06
2022-09-25T05:10:44.459Z,57.42
2022-09-25T05:11:17.656Z,57.37
2022-09-25T05:11:51.353Z,57.71
2022-09-25T05:12:24.703Z,58.40
2022-09-25T05:12:59.591Z,58.99
2022-09-25T05:13:32.794Z,59.58
2022-09-25T05:14:06.110Z,60.26
2022-09-25T05:14:41.368Z,60.84
2022-09-25T05:15:15.265Z,61.44
2022-09-25T05:15:48.686Z,62.07
2022-09-25T05:16:22.177Z,62.69
2022-09-25T05:16:55.360Z,63.32
2022-09-25T05:17:28.573Z,63.69
2022-09-25T05:18:07.494Z,63.49
2022-09-25T05:18:40.585Z,63.25
2022-09-25T05:19:14.392Z,62.07
2022-09-25T05:19:47.498Z,61.09
2022-09-25T05:20:20.634Z,60.18
2022-09-25T05:20:54.532Z,59.41
2022-09-25T05:21:27.721Z,58.54
2022-09-25T05:22:01.325Z,57.95
2022-09-25T05:22:34.708Z,57.85
2022-09-25T05:23:07.927Z,58.06
2022-09-25T05:23:41.015Z,58.56
2022-09-25T05:24:14.463Z,59.19
2022-09-25T05:24:47.565Z,59.85
2022-09-25T05:25:23.630Z,60.54
2022-09-25T05:26:03.982Z,61.19
2022-09-25T05:26:38.231Z,61.79
2022-09-25T05:27:12.821Z,62.77
2022-09-25T05:27:46.077Z,63.51
2022-09-25T05:28:19.493Z,63.81
2022-09-25T05:28:52.790Z,63.54
2022-09-25T05:29:25.955Z,63.15
2022-09-25T05:29:59.055Z,62.37
2022-09-25T05:30:33.923Z,61.38
2022-09-25T05:31:07.244Z,60.44
2022-09-25T05:31:42.939Z,59.48
2022-09-25T05:32:17.636Z,58.71
2022-09-25T05:32:52.214Z,57.89
2022-09-25T05:33:25.461Z,57.67
2022-09-25T05:33:58.935Z,57.93
2022-09-25T05:34:32.135Z,58.38
2022-09-25T05:35:06.566Z,58.95
2022-09-25T05:35:39.707Z,59.65
2022-09-25T05:36:13.040Z,60.43
2022-09-25T05:36:46.337Z,61.13
2022-09-25T05:37:20.589Z,61.81
2022-09-25T05:37:54.381Z,62.40
2022-09-25T05:38:29.326Z,63.10
2022-09-25T05:39:02.544Z,63.82
2022-09-25T05:39:35.864Z,64.01
2022-09-25T05:40:09.796Z,63.75
2022-09-25T05:40:43.622Z,63.58
2022-09-25T05:41:17.460Z,63.26
2022-09-25T05:41:51.597Z,62.91
2022-09-25T05:42:25.646Z,62.46
2022-09-25T05:43:00.398Z,61.92
2022-09-25T05:43:36.100Z,61.31
2022-09-25T05:44:10.683Z,60.63
2022-09-25T05:44:44.827Z,59.79
2022-09-25T05:45:20.369Z,58.96
2022-09-25T05:45:55.214Z,58.05
2022-09-25T05:46:28.568Z,57.44
2022-09-25T05:47:03.254Z,57.31
2022-09-25T05:47:36.450Z,57.73
2022-09-25T05:48:10.045Z,58.32
2022-09-25T05:48:43.388Z,58.91
2022-09-25T05:49:16.634Z,59.60
2022-09-25T05:49:49.891Z,60.29
2022-09-25T05:50:23.198Z,61.07
2022-09-25T05:50:57.850Z,61.74
2022-09-25T05:51:31.841Z,62.30
2022-09-25T05:52:05.062Z,62.87
2022-09-25T05:52:38.750Z,63.63
2022-09-25T05:53:11.822Z,63.99
2022-09-25T05:53:44.937Z,64.03
2022-09-25T05:54:18.149Z,63.97
2022-09-25T05:54:51.244Z,63.63
2022-09-25T05:55:24.860Z,63.06
2022-09-25T05:56:01.251Z,62.31
2022-09-25T05:56:34.283Z,61.55
2022-09-25T05:57:07.574Z,60.44
2022-09-25T05:57:40.690Z,59.69
2022-09-25T05:58:13.884Z,58.87
2022-09-25T05:58:48.661Z,58.13
2022-09-25T05:59:21.741Z,57.76
2022-09-25T05:59:54.973Z,57.99
2022-09-25T06:00:28.430Z,58.37
2022-09-25T06:01:04.061Z,58.87
2022-09-25T06:01:37.384Z,59.52
2022-09-25T06:02:13.482Z,60.29
2022-09-25T06:02:51.997Z,60.86
2022-09-25T06:03:28.835Z,61.59
2022-09-25T06:04:02.106Z,62.43
2022-09-25T06:04:35.303Z,63.38
2022-09-25T06:05:09.331Z,64.21
2022-09-25T06:05:42.967Z,64.48
2022-09-25T06:06:16.278Z,63.76
2022-09-25T06:06:49.698Z,63.46
2022-09-25T06:07:22.970Z,62.78
2022-09-25T06:07:56.413Z,62.03
2022-09-25T06:08:33.253Z,61.26
2022-09-25T06:09:06.449Z,60.90
2022-09-25T06:09:39.585Z,59.99
2022-09-25T06:10:12.738Z,58.92
2022-09-25T06:10:54.024Z,58.10
2022-09-25T06:11:27.483Z,57.85
2022-09-25T06:12:00.754Z,58.23
2022-09-25T06:12:34.012Z,58.85
2022-09-25T06:13:08.601Z,59.40
2022-09-25T06:13:49.548Z,60.09
2022-09-25T06:14:25.221Z,60.64
2022-09-25T06:14:58.568Z,61.55
2022-09-25T06:15:40.594Z,62.15
2022-09-25T06:16:18.798Z,62.77
2022-09-25T06:16:52.684Z,64.00
2022-09-25T06:17:25.877Z,64.03
2022-09-25T06:17:59.462Z,63.75
2022-09-25T06:18:34.089Z,63.24
2022-09-25T06:19:07.596Z,62.45
2022-09-25T06:19:40.904Z,61.47
2022-09-25T06:20:16.248Z,60.71
2022-09-25T06:20:50.626Z,60.05
2022-09-25T06:21:24.341Z,59.41
2022-09-25T06:22:00.651Z,58.49
2022-09-25T06:22:33.997Z,57.83
2022-09-25T06:23:07.226Z,57.83
2022-09-25T06:23:43.541Z,58.01
2022-09-25T06:24:16.634Z,58.61
2022-09-25T06:24:49.895Z,59.57
2022-09-25T06:25:25.541Z,60.13
2022-09-25T06:26:09.736Z,60.60
2022-09-25T06:26:43.766Z,60.92
2022-09-25T06:27:16.935Z,61.80
2022-09-25T06:27:54.749Z,62.49
2022-09-25T06:28:28.884Z,63.16
2022-09-25T06:29:03.330Z,64.06
2022-09-25T06:29:36.813Z,64.36
2022-09-25T06:30:10.355Z,63.57
2022-09-25T06:30:43.519Z,63.20
2022-09-25T06:31:16.752Z,62.70
2022-09-25T06:31:50.763Z,61.93
2022-09-25T06:32:23.930Z,61.12
2022-09-25T06:32:58.543Z,60.67
2022-09-25T06:33:32.589Z,60.07
2022-09-25T06:34:06.341Z,59.48
2022-09-25T06:34:39.620Z,58.63
2022-09-25T06:35:12.818Z,58.17
2022-09-25T06:35:48.862Z,57.76
2022-09-25T06:36:23.172Z,57.97
2022-09-25T06:36:56.479Z,58.08
2022-09-25T06:37:29.771Z,58.71
2022-09-25T06:38:04.997Z,59.44
2022-09-25T06:38:38.215Z,60.35
2022-09-25T06:39:11.467Z,61.39
2022-09-25T06:39:44.649Z,62.16
2022-09-25T06:40:18.086Z,62.54
2022-09-25T06:40:51.350Z,63.22
2022-09-25T06:41:25.174Z,63.37
2022-09-25T06:41:58.371Z,63.08
2022-09-25T06:42:31.821Z,62.64
2022-09-25T06:43:06.189Z,62.11
2022-09-25T06:43:39.725Z,61.42
2022-09-25T06:44:13.079Z,60.97
2022-09-25T06:44:46.330Z,60.57
2022-09-25T06:45:19.633Z,59.83
2022-09-25T06:45:52.921Z,59.11
2022-09-25T06:46:26.269Z,58.19
2022-09-25T06:47:00.175Z,57.76
2022-09-25T06:47:33.645Z,57.84
2022-09-25T06:48:11.208Z,58.23
2022-09-25T06:48:45.142Z,58.55
2022-09-25T06:49:18.194Z,59.35
2022-09-25T06:49:51.282Z,60.04
2022-09-25T06:50:31.947Z,60.66
2022-09-25T06:51:05.401Z,60.47
2022-09-25T06:51:39.644Z,60.43
2022-09-25T06:52:12.949Z,61.49
2022-09-25T06:52:46.050Z,61.94
2022-09-25T06:53:21.174Z,62.59
2022-09-25T06:53:54.792Z,63.23
2022-09-25T06:54:32.026Z,63.15
2022-09-25T06:55:05.644Z,62.28
2022-09-25T06:55:39.406Z,61.55
2022-09-25T06:56:12.724Z,61.04
2022-09-25T06:56:50.263Z,60.43
2022-09-25T06:57:23.489Z,60.08
2022-09-25T06:57:56.779Z,59.06
2022-09-25T06:58:30.966Z,57.70
2022-09-25T06:59:05.571Z,56.63
2022-09-25T06:59:39.586Z,56.31
2022-09-25T07:00:13.196Z,56.74
2022-09-25T07:00:51.206Z,57.26
2022-09-25T07:01:24.736Z,57.65
2022-09-25T07:02:17.972Z,58.56
2022-09-25T07:03:10.242Z,58.91
2022-09-25T07:03:46.560Z,59.21
2022-09-25T07:04:19.937Z,60.58
2022-09-25T07:04:53.183Z,61.12
2022-09-25T07:05:26.375Z,61.68
2022-09-25T07:06:04.739Z,61.99
2022-09-25T07:06:38.176Z,62.16
2022-09-25T07:07:11.479Z,62.61
2022-09-25T07:07:45.366Z,63.07
2022-09-25T07:08:21.242Z,62.81
2022-09-25T07:08:57.253Z,62.24
2022-09-25T07:09:30.525Z,61.37
2022-09-25T07:10:04.053Z,59.53
2022-09-25T07:10:37.278Z,58.05
2022-09-25T07:11:14.290Z,56.91
2022-09-25T07:11:48.972Z,56.20
2022-09-25T07:12:22.192Z,56.17
2022-09-25T07:12:55.388Z,56.35
2022-09-25T07:13:33.094Z,56.53
2022-09-25T07:14:06.318Z,57.08
2022-09-25T07:14:39.641Z,57.64
2022-09-25T07:15:12.903Z,58.21
2022-09-25T07:16:06.743Z,58.99
2022-09-25T07:16:40.052Z,58.83
2022-09-25T07:17:14.460Z,59.50
2022-09-25T07:17:47.744Z,60.27
2022-09-25T07:18:23.286Z,60.90
2022-09-25T07:19:03.584Z,61.65
2022-09-25T07:19:36.809Z,62.08
2022-09-25T07:20:13.000Z,62.72
2022-09-25T07:20:47.209Z,63.33
2022-09-25T07:21:23.014Z,63.37
2022-09-25T07:21:56.830Z,62.98
2022-09-25T07:22:30.373Z,62.05
2022-09-25T07:23:04.404Z,60.96
2022-09-25T07:23:38.296Z,59.67
2022-09-25T07:24:11.768Z,58.01
2022-09-25T07:24:45.347Z,56.76
2022-09-25T07:25:18.684Z,55.57
2022-09-25T07:25:51.914Z,55.28
2022-09-25T07:26:27.562Z,55.65
2022-09-25T07:27:00.917Z,55.99
2022-09-25T07:27:35.379Z,56.74
2022-09-25T07:28:08.579Z,56.57
2022-09-25T07:28:44.219Z,56.81
2022-09-25T07:29:17.338Z,57.78
2022-09-25T07:29:52.116Z,58.72
2022-09-25T07:30:28.662Z,58.75
2022-09-25T07:31:17.830Z,59.09
2022-09-25T07:31:51.210Z,59.12
2022-09-25T07:32:24.426Z,59.87
2022-09-25T07:33:00.202Z,60.18
2022-09-25T07:33:33.628Z,60.48
2022-09-25T07:34:09.773Z,60.83
2022-09-25T07:34:44.065Z,61.01
2022-09-25T07:35:18.803Z,61.65
2022-09-25T07:35:54.898Z,62.21
2022-09-25T07:36:29.248Z,62.41
2022-09-25T07:37:02.514Z,62.37
2022-09-25T07:37:35.662Z,62.34
2022-09-25T07:38:08.759Z,61.94
2022-09-25T07:38:42.385Z,60.91
2022-09-25T07:39:18.494Z,59.87
2022-09-25T07:39:52.002Z,58.57
2022-09-25T07:40:29.216Z,57.47
2022-09-25T07:41:02.354Z,56.98
2022-09-25T07:41:37.943Z,56.86
2022-09-25T07:42:11.693Z,57.08
2022-09-25T07:42:44.848Z,57.52
2022-09-25T07:43:17.945Z,58.01
2022-09-25T07:44:40.173Z,58.51
2022-09-25T07:44:51.571Z,58.58
2022-09-25T07:45:25.129Z,58.98
2022-09-25T07:45:58.399Z,59.33
2022-09-25T07:46:32.423Z,59.82
2022-09-25T07:47:07.481Z,60.38
2022-09-25T07:47:40.733Z,60.80
2022-09-25T07:48:14.831Z,60.98
2022-09-25T07:48:51.766Z,61.43
2022-09-25T07:49:24.974Z,61.37
2022-09-25T07:49:58.951Z,61.54
2022-09-25T07:50:33.878Z,61.81
2022-09-25T07:51:09.502Z,62.42
2022-09-25T07:51:42.783Z,63.19
2022-09-25T07:52:16.016Z,63.68
2022-09-25T07:52:49.326Z,63.14